sensor_id;sensor_type;location;lat;lon;timestamp;pressure;altitude;pressure_sealevel;temperature;humidity
43683;BME280;29285;52.128;21.060;2023-10-13T00:04:47;100372.83;;;10.53;100.00
43683;BME280;29285;52.128;21.060;2023-10-13T00:09:51;100373.55;;;10.62;100.00
43683;BME280;29285;52.128;21.060;2023-10-13T00:14:53;100379.30;;;10.60;100.00
43683;BME280;29285;52.128;21.060;2023-10-13T00:19:55;100371.89;;;10.57;100.00
43683;BME280;29285;52.128;21.060;2023-10-13T00:25:01;100377.08;;;10.58;100.00
43683;BME280;29285;52.128;21.060;2023-10-13T00:30:06;100371.77;;;10.54;100.00
43683;BME280;29285;52.128;21.060;2023-10-13T00:35:27;100372.58;;;10.44;100.00
43683;BME280;29285;52.128;21.060;2023-10-13T00:40:41;100378.75;;;10.37;100.00
43683;BME280;29285;52.128;21.060;2023-10-13T00:45:52;100385.38;;;10.34;100.00
43683;BME280;29285;52.128;21.060;2023-10-13T00:51:03;100389.84;;;10.37;100.00
43683;BME280;29285;52.128;21.060;2023-10-13T00:56:08;100390.63;;;10.44;100.00
43683;BME280;29285;52.128;21.060;2023-10-13T01:01:20;100391.95;;;10.49;100.00
43683;BME280;29285;52.128;21.060;2023-10-13T01:06:31;100395.06;;;10.51;100.00
43683;BME280;29285;52.128;21.060;2023-10-13T01:11:33;100391.36;;;10.55;100.00
43683;BME280;29285;52.128;21.060;2023-10-13T01:16:39;100388.08;;;10.53;100.00
43683;BME280;29285;52.128;21.060;2023-10-13T01:21:47;100394.83;;;10.54;100.00
43683;BME280;29285;52.128;21.060;2023-10-13T01:26:50;100399.65;;;10.57;100.00
43683;BME280;29285;52.128;21.060;2023-10-13T01:31:54;100407.92;;;10.61;100.00
43683;BME280;29285;52.128;21.060;2023-10-13T01:36:57;100412.55;;;10.65;100.00
43683;BME280;29285;52.128;21.060;2023-10-13T01:42:07;100418.37;;;10.70;100.00
43683;BME280;29285;52.128;21.060;2023-10-13T01:47:08;100412.77;;;10.72;100.00
43683;BME280;29285;52.128;21.060;2023-10-13T01:52:10;100407.75;;;10.71;100.00
43683;BME280;29285;52.128;21.060;2023-10-13T01:57:17;100406.77;;;10.69;100.00
43683;BME280;29285;52.128;21.060;2023-10-13T02:02:19;100408.52;;;10.67;100.00
43683;BME280;29285;52.128;21.060;2023-10-13T02:07:30;100395.21;;;10.64;100.00
43683;BME280;29285;52.128;21.060;2023-10-13T02:12:32;100394.15;;;10.65;100.00
43683;BME280;29285;52.128;21.060;2023-10-13T02:17:46;100391.17;;;10.67;100.00
43683;BME280;29285;52.128;21.060;2023-10-13T02:22:53;100398.11;;;10.67;100.00
43683;BME280;29285;52.128;21.060;2023-10-13T02:27:55;100402.91;;;10.70;100.00
43683;BME280;29285;52.128;21.060;2023-10-13T02:33:00;100406.48;;;10.75;100.00
43683;BME280;29285;52.128;21.060;2023-10-13T02:38:08;100410.41;;;10.80;100.00
43683;BME280;29285;52.128;21.060;2023-10-13T02:43:13;100396.63;;;10.84;100.00
43683;BME280;29285;52.128;21.060;2023-10-13T02:48:16;100399.66;;;10.90;100.00
43683;BME280;29285;52.128;21.060;2023-10-13T02:53:23;100406.47;;;10.98;100.00
43683;BME280;29285;52.128;21.060;2023-10-13T02:58:30;100412.95;;;11.05;100.00
43683;BME280;29285;52.128;21.060;2023-10-13T03:03:39;100412.52;;;11.10;100.00
43683;BME280;29285;52.128;21.060;2023-10-13T03:08:43;100405.89;;;11.12;100.00
43683;BME280;29285;52.128;21.060;2023-10-13T03:13:45;100395.56;;;11.16;100.00
43683;BME280;29285;52.128;21.060;2023-10-13T03:18:47;100401.77;;;11.19;100.00
43683;BME280;29285;52.128;21.060;2023-10-13T03:24:00;100396.60;;;11.17;100.00
43683;BME280;29285;52.128;21.060;2023-10-13T03:29:06;100396.64;;;11.16;100.00
43683;BME280;29285;52.128;21.060;2023-10-13T03:34:10;100392.89;;;11.10;100.00
43683;BME280;29285;52.128;21.060;2023-10-13T03:39:13;100379.39;;;11.08;100.00
43683;BME280;29285;52.128;21.060;2023-10-13T03:44:16;100385.34;;;11.06;100.00
43683;BME280;29285;52.128;21.060;2023-10-13T03:49:19;100398.41;;;11.03;100.00
43683;BME280;29285;52.128;21.060;2023-10-13T03:54:26;100398.80;;;11.00;100.00
43683;BME280;29285;52.128;21.060;2023-10-13T03:59:31;100400.36;;;11.00;100.00
43683;BME280;29285;52.128;21.060;2023-10-13T04:04:37;100401.95;;;10.98;100.00
43683;BME280;29285;52.128;21.060;2023-10-13T04:09:55;100400.77;;;10.96;100.00
43683;BME280;29285;52.128;21.060;2023-10-13T04:15:17;100409.69;;;10.93;100.00
43683;BME280;29285;52.128;21.060;2023-10-13T04:20:24;100417.41;;;10.87;100.00
43683;BME280;29285;52.128;21.060;2023-10-13T04:25:36;100408.19;;;10.78;100.00
43683;BME280;29285;52.128;21.060;2023-10-13T04:30:53;100407.20;;;10.74;100.00
43683;BME280;29285;52.128;21.060;2023-10-13T04:35:55;100406.02;;;10.72;100.00
43683;BME280;29285;52.128;21.060;2023-10-13T04:41:00;100408.86;;;10.67;100.00
43683;BME280;29285;52.128;21.060;2023-10-13T04:46:03;100412.02;;;10.65;100.00
43683;BME280;29285;52.128;21.060;2023-10-13T04:51:37;100412.76;;;10.63;100.00
43683;BME280;29285;52.128;21.060;2023-10-13T04:56:55;100407.40;;;10.61;100.00
43683;BME280;29285;52.128;21.060;2023-10-13T05:02:15;100399.39;;;10.63;100.00
43683;BME280;29285;52.128;21.060;2023-10-13T05:07:35;100398.48;;;10.66;100.00
43683;BME280;29285;52.128;21.060;2023-10-13T05:12:56;100398.67;;;10.65;100.00
43683;BME280;29285;52.128;21.060;2023-10-13T05:18:17;100393.25;;;10.67;100.00
43683;BME280;29285;52.128;21.060;2023-10-13T05:23:41;100398.34;;;10.73;100.00
43683;BME280;29285;52.128;21.060;2023-10-13T05:29:02;100414.94;;;10.79;100.00
43683;BME280;29285;52.128;21.060;2023-10-13T05:34:22;100427.36;;;10.84;100.00
43683;BME280;29285;52.128;21.060;2023-10-13T05:39:43;100434.77;;;10.98;100.00
43683;BME280;29285;52.128;21.060;2023-10-13T05:45:04;100441.19;;;11.09;100.00
43683;BME280;29285;52.128;21.060;2023-10-13T05:50:18;100441.20;;;11.19;100.00
43683;BME280;29285;52.128;21.060;2023-10-13T07:06:48;100494.81;;;12.29;100.00
43683;BME280;29285;52.128;21.060;2023-10-13T07:11:51;100482.95;;;12.31;100.00
43683;BME280;29285;52.128;21.060;2023-10-13T07:17:00;100489.08;;;12.37;100.00
43683;BME280;29285;52.128;21.060;2023-10-13T07:22:02;100490.90;;;12.50;100.00
43683;BME280;29285;52.128;21.060;2023-10-13T07:27:21;100484.23;;;12.60;100.00
43683;BME280;29285;52.128;21.060;2023-10-13T07:32:26;100479.39;;;12.58;100.00
43683;BME280;29285;52.128;21.060;2023-10-13T07:37:29;100479.67;;;12.70;100.00
43683;BME280;29285;52.128;21.060;2023-10-13T07:42:32;100481.75;;;12.86;100.00
43683;BME280;29285;52.128;21.060;2023-10-13T07:47:40;100485.30;;;12.91;100.00
43683;BME280;29285;52.128;21.060;2023-10-13T07:52:43;100481.38;;;13.02;100.00
43683;BME280;29285;52.128;21.060;2023-10-13T07:58:00;100472.96;;;13.19;100.00
43683;BME280;29285;52.128;21.060;2023-10-13T08:03:09;100470.54;;;13.32;100.00
43683;BME280;29285;52.128;21.060;2023-10-13T08:08:22;100467.35;;;13.41;100.00
43683;BME280;29285;52.128;21.060;2023-10-13T08:13:27;100462.23;;;13.44;100.00
43683;BME280;29285;52.128;21.060;2023-10-13T08:18:29;100457.88;;;13.58;100.00
43683;BME280;29285;52.128;21.060;2023-10-13T08:23:34;100454.50;;;13.61;100.00
43683;BME280;29285;52.128;21.060;2023-10-13T08:28:57;100446.14;;;13.74;100.00
43683;BME280;29285;52.128;21.060;2023-10-13T08:34:19;100435.23;;;13.96;100.00
43683;BME280;29285;52.128;21.060;2023-10-13T08:39:25;100436.65;;;14.02;100.00
43683;BME280;29285;52.128;21.060;2023-10-13T08:44:46;100439.33;;;14.12;100.00
43683;BME280;29285;52.128;21.060;2023-10-13T08:49:53;100435.89;;;14.16;100.00
43683;BME280;29285;52.128;21.060;2023-10-13T08:55:12;100430.27;;;14.35;100.00
43683;BME280;29285;52.128;21.060;2023-10-13T09:00:34;100431.13;;;14.47;100.00
43683;BME280;29285;52.128;21.060;2023-10-13T09:05:55;100432.05;;;14.46;100.00
43683;BME280;29285;52.128;21.060;2023-10-13T09:11:03;100433.27;;;14.57;100.00
43683;BME280;29285;52.128;21.060;2023-10-13T09:16:14;100432.50;;;14.65;100.00
43683;BME280;29285;52.128;21.060;2023-10-13T09:21:39;100431.66;;;14.63;100.00
43683;BME280;29285;52.128;21.060;2023-10-13T09:26:41;100427.98;;;14.64;100.00
43683;BME280;29285;52.128;21.060;2023-10-13T09:31:45;100427.16;;;14.62;100.00
43683;BME280;29285;52.128;21.060;2023-10-13T09:36:51;100424.30;;;14.70;100.00
43683;BME280;29285;52.128;21.060;2023-10-13T09:41:57;100422.00;;;14.94;100.00
43683;BME280;29285;52.128;21.060;2023-10-13T09:47:02;100418.48;;;15.05;100.00
43683;BME280;29285;52.128;21.060;2023-10-13T09:52:12;100410.81;;;15.20;100.00
43683;BME280;29285;52.128;21.060;2023-10-13T09:57:21;100397.81;;;15.43;100.00
43683;BME280;29285;52.128;21.060;2023-10-13T10:02:25;100391.59;;;15.61;100.00
43683;BME280;29285;52.128;21.060;2023-10-13T10:07:28;100384.81;;;15.60;100.00
43683;BME280;29285;52.128;21.060;2023-10-13T10:17:43;100376.49;;;15.81;100.00
43683;BME280;29285;52.128;21.060;2023-10-13T10:22:58;100373.05;;;15.75;100.00
43683;BME280;29285;52.128;21.060;2023-10-13T10:28:03;100361.39;;;15.93;100.00
43683;BME280;29285;52.128;21.060;2023-10-13T10:33:10;100348.31;;;16.33;100.00
43683;BME280;29285;52.128;21.060;2023-10-13T10:38:20;100344.33;;;16.50;100.00
43683;BME280;29285;52.128;21.060;2023-10-13T10:43:36;100341.52;;;16.63;100.00
43683;BME280;29285;52.128;21.060;2023-10-13T10:48:47;100337.15;;;16.41;100.00
43683;BME280;29285;52.128;21.060;2023-10-13T10:53:51;100327.94;;;16.35;100.00
43683;BME280;29285;52.128;21.060;2023-10-13T10:58:59;100322.46;;;16.58;100.00
43683;BME280;29285;52.128;21.060;2023-10-13T11:04:08;100310.44;;;16.81;100.00
43683;BME280;29285;52.128;21.060;2023-10-13T11:09:10;100304.90;;;16.84;100.00
43683;BME280;29285;52.128;21.060;2023-10-13T11:14:28;100298.49;;;16.95;100.00
43683;BME280;29285;52.128;21.060;2023-10-13T11:19:39;100296.73;;;17.12;100.00
43683;BME280;29285;52.128;21.060;2023-10-13T11:24:42;100290.27;;;17.12;100.00
43683;BME280;29285;52.128;21.060;2023-10-13T11:29:45;100281.17;;;17.15;100.00
43683;BME280;29285;52.128;21.060;2023-10-13T11:34:53;100270.85;;;17.15;100.00
43683;BME280;29285;52.128;21.060;2023-10-13T11:39:56;100268.03;;;17.54;100.00
43683;BME280;29285;52.128;21.060;2023-10-13T11:44:58;100257.85;;;18.00;100.00
43683;BME280;29285;52.128;21.060;2023-10-13T11:50:32;100246.95;;;18.40;100.00
43683;BME280;29285;52.128;21.060;2023-10-13T11:55:35;100241.16;;;18.57;100.00
43683;BME280;29285;52.128;21.060;2023-10-13T12:00:37;100241.77;;;18.94;100.00
43683;BME280;29285;52.128;21.060;2023-10-13T12:06:17;100232.83;;;19.37;100.00
43683;BME280;29285;52.128;21.060;2023-10-13T12:11:25;100232.65;;;19.76;100.00
43683;BME280;29285;52.128;21.060;2023-10-13T12:16:32;100219.80;;;20.13;100.00
43683;BME280;29285;52.128;21.060;2023-10-13T12:21:36;100219.66;;;20.40;100.00
43683;BME280;29285;52.128;21.060;2023-10-13T12:26:39;100220.30;;;20.38;100.00
43683;BME280;29285;52.128;21.060;2023-10-13T12:31:44;100205.59;;;20.46;100.00
43683;BME280;29285;52.128;21.060;2023-10-13T12:36:53;100191.77;;;20.50;100.00
43683;BME280;29285;52.128;21.060;2023-10-13T12:42:07;100181.78;;;20.43;100.00
43683;BME280;29285;52.128;21.060;2023-10-13T12:47:27;100177.27;;;20.45;100.00
43683;BME280;29285;52.128;21.060;2023-10-13T12:52:48;100170.29;;;20.44;100.00
43683;BME280;29285;52.128;21.060;2023-10-13T12:57:49;100165.71;;;20.20;100.00
43683;BME280;29285;52.128;21.060;2023-10-13T13:02:51;100162.21;;;20.20;100.00
43683;BME280;29285;52.128;21.060;2023-10-13T13:07:57;100149.15;;;20.09;100.00
43683;BME280;29285;52.128;21.060;2023-10-13T13:12:58;100159.70;;;19.80;100.00
43683;BME280;29285;52.128;21.060;2023-10-13T13:18:00;100158.57;;;19.63;100.00
43683;BME280;29285;52.128;21.060;2023-10-13T13:23:11;100156.98;;;19.51;100.00
43683;BME280;29285;52.128;21.060;2023-10-13T13:28:14;100140.02;;;19.39;100.00
43683;BME280;29285;52.128;21.060;2023-10-13T13:33:17;100140.98;;;19.31;100.00
43683;BME280;29285;52.128;21.060;2023-10-13T13:38:25;100138.05;;;19.11;100.00
43683;BME280;29285;52.128;21.060;2023-10-13T13:43:33;100126.90;;;18.89;100.00
43683;BME280;29285;52.128;21.060;2023-10-13T13:48:42;100114.98;;;18.85;100.00
43683;BME280;29285;52.128;21.060;2023-10-13T13:53:45;100104.05;;;18.73;100.00
43683;BME280;29285;52.128;21.060;2023-10-13T13:58:49;100097.63;;;18.58;100.00
43683;BME280;29285;52.128;21.060;2023-10-13T14:03:54;100095.88;;;18.44;100.00
43683;BME280;29285;52.128;21.060;2023-10-13T14:08:59;100092.39;;;18.30;100.00
43683;BME280;29285;52.128;21.060;2023-10-13T14:14:11;100089.27;;;18.16;100.00
43683;BME280;29285;52.128;21.060;2023-10-13T14:19:30;100081.23;;;18.04;100.00
43683;BME280;29285;52.128;21.060;2023-10-13T14:24:34;100080.54;;;18.00;100.00
43683;BME280;29285;52.128;21.060;2023-10-13T14:29:37;100078.09;;;17.97;100.00
43683;BME280;29285;52.128;21.060;2023-10-13T14:34:46;100069.99;;;17.94;100.00
43683;BME280;29285;52.128;21.060;2023-10-13T14:39:50;100069.30;;;17.94;100.00
43683;BME280;29285;52.128;21.060;2023-10-13T14:44:52;100076.90;;;17.93;100.00
43683;BME280;29285;52.128;21.060;2023-10-13T14:49:57;100071.77;;;17.86;100.00
43683;BME280;29285;52.128;21.060;2023-10-13T14:55:03;100068.11;;;17.79;100.00
43683;BME280;29285;52.128;21.060;2023-10-13T15:00:09;100063.70;;;17.73;100.00
43683;BME280;29285;52.128;21.060;2023-10-13T15:05:14;100052.90;;;17.68;100.00
43683;BME280;29285;52.128;21.060;2023-10-13T15:10:17;100053.22;;;17.61;100.00
43683;BME280;29285;52.128;21.060;2023-10-13T15:15:19;100048.75;;;17.52;100.00
43683;BME280;29285;52.128;21.060;2023-10-13T15:20:21;100037.59;;;17.44;100.00
43683;BME280;29285;52.128;21.060;2023-10-13T15:25:23;100028.55;;;17.35;100.00
43683;BME280;29285;52.128;21.060;2023-10-13T15:30:33;100020.63;;;17.32;100.00
43683;BME280;29285;52.128;21.060;2023-10-13T15:35:58;100013.95;;;17.28;100.00
43683;BME280;29285;52.128;21.060;2023-10-13T15:41:00;100002.77;;;17.24;100.00
43683;BME280;29285;52.128;21.060;2023-10-13T15:46:15;99995.40;;;17.20;100.00
43683;BME280;29285;52.128;21.060;2023-10-13T15:51:19;99993.50;;;17.20;100.00
43683;BME280;29285;52.128;21.060;2023-10-13T15:56:21;99997.92;;;17.19;100.00
43683;BME280;29285;52.128;21.060;2023-10-13T16:01:22;99993.85;;;17.20;100.00
43683;BME280;29285;52.128;21.060;2023-10-13T16:06:25;99983.27;;;17.21;100.00
43683;BME280;29285;52.128;21.060;2023-10-13T16:11:27;99977.28;;;17.22;100.00
43683;BME280;29285;52.128;21.060;2023-10-13T16:16:29;99976.94;;;17.15;100.00
43683;BME280;29285;52.128;21.060;2023-10-13T16:21:30;99970.25;;;17.08;100.00
43683;BME280;29285;52.128;21.060;2023-10-13T16:26:35;99964.64;;;17.04;100.00
43683;BME280;29285;52.128;21.060;2023-10-13T16:31:36;99964.40;;;17.02;100.00
43683;BME280;29285;52.128;21.060;2023-10-13T16:36:38;99960.02;;;16.98;100.00
43683;BME280;29285;52.128;21.060;2023-10-13T16:41:40;99943.86;;;16.98;100.00
43683;BME280;29285;52.128;21.060;2023-10-13T16:46:43;99939.77;;;16.96;100.00
43683;BME280;29285;52.128;21.060;2023-10-13T16:51:45;99935.77;;;16.92;100.00
43683;BME280;29285;52.128;21.060;2023-10-13T16:56:47;99923.99;;;16.89;100.00
43683;BME280;29285;52.128;21.060;2023-10-13T17:01:49;99913.64;;;16.86;100.00
43683;BME280;29285;52.128;21.060;2023-10-13T17:06:50;99904.56;;;16.82;100.00
43683;BME280;29285;52.128;21.060;2023-10-13T17:11:52;99898.26;;;16.81;100.00
43683;BME280;29285;52.128;21.060;2023-10-13T17:16:54;99893.13;;;16.83;100.00
43683;BME280;29285;52.128;21.060;2023-10-13T17:21:59;99895.00;;;16.84;100.00
43683;BME280;29285;52.128;21.060;2023-10-13T17:27:00;99887.73;;;16.82;100.00
43683;BME280;29285;52.128;21.060;2023-10-13T17:32:03;99885.94;;;16.79;100.00
43683;BME280;29285;52.128;21.060;2023-10-13T17:37:05;99879.30;;;16.79;100.00
43683;BME280;29285;52.128;21.060;2023-10-13T17:42:07;99873.15;;;16.75;100.00
43683;BME280;29285;52.128;21.060;2023-10-13T17:47:08;99864.19;;;16.72;100.00
43683;BME280;29285;52.128;21.060;2023-10-13T17:52:11;99856.56;;;16.71;100.00
43683;BME280;29285;52.128;21.060;2023-10-13T17:57:13;99851.52;;;16.67;100.00
43683;BME280;29285;52.128;21.060;2023-10-13T18:02:17;99850.77;;;16.64;100.00
43683;BME280;29285;52.128;21.060;2023-10-13T18:07:20;99853.46;;;16.66;100.00
43683;BME280;29285;52.128;21.060;2023-10-13T18:12:23;99843.42;;;16.67;100.00
43683;BME280;29285;52.128;21.060;2023-10-13T18:17:25;99840.84;;;16.66;100.00
43683;BME280;29285;52.128;21.060;2023-10-13T18:22:28;99842.84;;;16.65;100.00
43683;BME280;29285;52.128;21.060;2023-10-13T18:27:30;99839.96;;;16.66;100.00
43683;BME280;29285;52.128;21.060;2023-10-13T18:32:31;99839.98;;;16.63;100.00
43683;BME280;29285;52.128;21.060;2023-10-13T18:37:33;99838.41;;;16.62;100.00
43683;BME280;29285;52.128;21.060;2023-10-13T18:42:36;99842.67;;;16.61;100.00
43683;BME280;29285;52.128;21.060;2023-10-13T18:47:43;99843.38;;;16.61;100.00
43683;BME280;29285;52.128;21.060;2023-10-13T18:52:46;99848.23;;;16.59;100.00
43683;BME280;29285;52.128;21.060;2023-10-13T18:57:48;99839.23;;;16.57;100.00
43683;BME280;29285;52.128;21.060;2023-10-13T19:02:50;99832.05;;;16.57;100.00
43683;BME280;29285;52.128;21.060;2023-10-13T19:07:52;99830.63;;;16.57;100.00
43683;BME280;29285;52.128;21.060;2023-10-13T19:12:54;99823.77;;;16.58;100.00
43683;BME280;29285;52.128;21.060;2023-10-13T19:17:59;99821.77;;;16.52;100.00
43683;BME280;29285;52.128;21.060;2023-10-13T19:23:03;99812.77;;;16.42;100.00
43683;BME280;29285;52.128;21.060;2023-10-13T19:28:05;99812.83;;;16.34;100.00
43683;BME280;29285;52.128;21.060;2023-10-13T19:33:10;99814.11;;;16.25;100.00
43683;BME280;29285;52.128;21.060;2023-10-13T19:38:12;99809.19;;;16.22;100.00
43683;BME280;29285;52.128;21.060;2023-10-13T19:43:16;99815.08;;;16.20;100.00
43683;BME280;29285;52.128;21.060;2023-10-13T19:48:18;99805.42;;;16.17;100.00
43683;BME280;29285;52.128;21.060;2023-10-13T19:53:19;99797.17;;;16.13;100.00
43683;BME280;29285;52.128;21.060;2023-10-13T19:58:21;99790.30;;;16.11;100.00
43683;BME280;29285;52.128;21.060;2023-10-13T20:03:22;99785.80;;;16.10;100.00
43683;BME280;29285;52.128;21.060;2023-10-13T20:08:26;99782.10;;;16.10;100.00
43683;BME280;29285;52.128;21.060;2023-10-13T20:13:29;99778.31;;;16.09;100.00
43683;BME280;29285;52.128;21.060;2023-10-13T20:18:31;99777.67;;;16.08;100.00
43683;BME280;29285;52.128;21.060;2023-10-13T20:23:33;99777.55;;;16.07;100.00
43683;BME280;29285;52.128;21.060;2023-10-13T20:28:37;99774.81;;;16.05;100.00
43683;BME280;29285;52.128;21.060;2023-10-13T20:33:41;99772.91;;;16.01;100.00
43683;BME280;29285;52.128;21.060;2023-10-13T20:38:45;99773.70;;;15.99;100.00
43683;BME280;29285;52.128;21.060;2023-10-13T20:43:52;99773.69;;;15.96;100.00
43683;BME280;29285;52.128;21.060;2023-10-13T20:48:53;99766.99;;;15.93;100.00
43683;BME280;29285;52.128;21.060;2023-10-13T20:53:55;99766.63;;;15.89;100.00
43683;BME280;29285;52.128;21.060;2023-10-13T20:58:56;99760.59;;;15.87;100.00
43683;BME280;29285;52.128;21.060;2023-10-13T21:04:01;99755.19;;;15.87;100.00
43683;BME280;29285;52.128;21.060;2023-10-13T21:09:02;99747.45;;;15.88;100.00
43683;BME280;29285;52.128;21.060;2023-10-13T21:14:05;99735.33;;;15.89;100.00
43683;BME280;29285;52.128;21.060;2023-10-13T21:19:08;99726.42;;;15.88;100.00
43683;BME280;29285;52.128;21.060;2023-10-13T21:24:09;99717.02;;;15.87;100.00
43683;BME280;29285;52.128;21.060;2023-10-13T21:29:11;99702.36;;;15.87;100.00
43683;BME280;29285;52.128;21.060;2023-10-13T21:34:12;99702.52;;;15.87;100.00
43683;BME280;29285;52.128;21.060;2023-10-13T21:39:15;99703.02;;;15.88;100.00
43683;BME280;29285;52.128;21.060;2023-10-13T21:44:17;99689.66;;;15.89;100.00
43683;BME280;29285;52.128;21.060;2023-10-13T21:49:19;99690.94;;;15.92;100.00
43683;BME280;29285;52.128;21.060;2023-10-13T21:54:23;99689.86;;;15.93;100.00
43683;BME280;29285;52.128;21.060;2023-10-13T21:59:27;99686.83;;;15.94;100.00
43683;BME280;29285;52.128;21.060;2023-10-13T22:04:29;99682.73;;;15.96;100.00
43683;BME280;29285;52.128;21.060;2023-10-13T22:09:32;99681.58;;;15.98;100.00
43683;BME280;29285;52.128;21.060;2023-10-13T22:14:37;99675.60;;;15.98;100.00
43683;BME280;29285;52.128;21.060;2023-10-13T22:19:39;99672.15;;;15.97;100.00
43683;BME280;29285;52.128;21.060;2023-10-13T22:24:41;99663.81;;;15.96;100.00
43683;BME280;29285;52.128;21.060;2023-10-13T22:29:43;99654.66;;;15.94;100.00
43683;BME280;29285;52.128;21.060;2023-10-13T22:34:45;99650.88;;;15.92;100.00
43683;BME280;29285;52.128;21.060;2023-10-13T22:39:47;99644.46;;;15.90;100.00
43683;BME280;29285;52.128;21.060;2023-10-13T22:44:49;99632.79;;;15.90;100.00
43683;BME280;29285;52.128;21.060;2023-10-13T22:49:50;99628.42;;;15.90;100.00
43683;BME280;29285;52.128;21.060;2023-10-13T22:54:52;99618.11;;;15.90;100.00
43683;BME280;29285;52.128;21.060;2023-10-13T22:59:53;99615.88;;;15.88;100.00
43683;BME280;29285;52.128;21.060;2023-10-13T23:04:55;99609.45;;;15.88;100.00
43683;BME280;29285;52.128;21.060;2023-10-13T23:10:00;99604.90;;;15.88;100.00
43683;BME280;29285;52.128;21.060;2023-10-13T23:15:02;99597.87;;;15.88;100.00
43683;BME280;29285;52.128;21.060;2023-10-13T23:20:10;99590.19;;;15.88;100.00
43683;BME280;29285;52.128;21.060;2023-10-13T23:25:13;99587.00;;;15.89;100.00
43683;BME280;29285;52.128;21.060;2023-10-13T23:30:15;99580.66;;;15.90;100.00
43683;BME280;29285;52.128;21.060;2023-10-13T23:35:16;99576.13;;;15.90;100.00
43683;BME280;29285;52.128;21.060;2023-10-13T23:40:18;99569.15;;;15.89;100.00
43683;BME280;29285;52.128;21.060;2023-10-13T23:45:23;99562.20;;;15.88;100.00
43683;BME280;29285;52.128;21.060;2023-10-13T23:50:25;99561.95;;;15.90;100.00
43683;BME280;29285;52.128;21.060;2023-10-13T23:55:29;99553.96;;;15.92;100.00
